sensor_id;sensor_type;location;lat;lon;timestamp;pressure;altitude;pressure_sealevel;temperature;humidity
75794;BME280;64418;47.536;19.074;2023-03-11T00:00:13;98189.06;;;9.51;67.15
75794;BME280;64418;47.536;19.074;2023-03-11T00:03:01;98178.50;;;9.28;67.98
75794;BME280;64418;47.536;19.074;2023-03-11T00:05:29;98190.31;;;9.22;68.70
75794;BME280;64418;47.536;19.074;2023-03-11T00:08:18;98183.00;;;9.01;69.36
75794;BME280;64418;47.536;19.074;2023-03-11T00:10:46;98185.72;;;9.01;70.13
75794;BME280;64418;47.536;19.074;2023-03-11T00:13:15;98175.56;;;8.69;71.39
75794;BME280;64418;47.536;19.074;2023-03-11T00:15:43;98166.91;;;8.67;72.17
75794;BME280;64418;47.536;19.074;2023-03-11T00:18:29;98171.78;;;8.70;71.67
75794;BME280;64418;47.536;19.074;2023-03-11T00:20:56;98170.66;;;8.66;72.17
75794;BME280;64418;47.536;19.074;2023-03-11T00:23:23;98166.31;;;8.65;71.93
75794;BME280;64418;47.536;19.074;2023-03-11T00:25:49;98171.16;;;8.63;71.50
75794;BME280;64418;47.536;19.074;2023-03-11T00:28:16;98159.34;;;8.69;71.45
75794;BME280;64418;47.536;19.074;2023-03-11T00:30:44;98166.69;;;8.91;69.74
75794;BME280;64418;47.536;19.074;2023-03-11T00:33:11;98163.16;;;9.12;68.44
75794;BME280;64418;47.536;19.074;2023-03-11T00:35:57;98164.22;;;9.11;68.35
75794;BME280;64418;47.536;19.074;2023-03-11T00:38:23;98172.97;;;9.18;68.48
75794;BME280;64418;47.536;19.074;2023-03-11T00:40:49;98177.78;;;9.38;66.67
75794;BME280;64418;47.536;19.074;2023-03-11T00:43:36;98159.94;;;9.37;66.52
75794;BME280;64418;47.536;19.074;2023-03-11T00:46:01;98172.59;;;9.31;66.83
75794;BME280;64418;47.536;19.074;2023-03-11T00:48:27;98155.25;;;9.27;66.84
75794;BME280;64418;47.536;19.074;2023-03-11T00:50:53;98162.91;;;9.35;65.82
75794;BME280;64418;47.536;19.074;2023-03-11T00:53:20;98164.25;;;9.33;65.80
75794;BME280;64418;47.536;19.074;2023-03-11T00:55:46;98166.22;;;9.42;64.09
75794;BME280;64418;47.536;19.074;2023-03-11T00:58:12;98166.78;;;9.44;63.78
75794;BME280;64418;47.536;19.074;2023-03-11T01:00:40;98168.84;;;9.32;64.16
75794;BME280;64418;47.536;19.074;2023-03-11T01:03:06;98166.06;;;9.27;64.80
75794;BME280;64418;47.536;19.074;2023-03-11T01:05:33;98172.53;;;9.26;64.30
75794;BME280;64418;47.536;19.074;2023-03-11T01:08:19;98168.25;;;9.30;63.85
75794;BME280;64418;47.536;19.074;2023-03-11T01:10:44;98169.59;;;9.06;65.34
75794;BME280;64418;47.536;19.074;2023-03-11T01:13:31;98155.06;;;9.12;64.73
75794;BME280;64418;47.536;19.074;2023-03-11T01:15:58;98153.38;;;9.06;64.84
75794;BME280;64418;47.536;19.074;2023-03-11T01:18:25;98146.47;;;8.93;65.26
75794;BME280;64418;47.536;19.074;2023-03-11T01:20:51;98152.72;;;8.99;65.25
75794;BME280;64418;47.536;19.074;2023-03-11T01:23:18;98146.16;;;8.90;65.67
75794;BME280;64418;47.536;19.074;2023-03-11T01:25:45;98148.97;;;9.00;65.13
75794;BME280;64418;47.536;19.074;2023-03-11T01:28:30;98148.97;;;9.00;65.07
75794;BME280;64418;47.536;19.074;2023-03-11T01:30:58;98144.00;;;8.92;65.17
75794;BME280;64418;47.536;19.074;2023-03-11T01:33:24;98139.81;;;8.79;65.29
75794;BME280;64418;47.536;19.074;2023-03-11T01:35:50;98143.94;;;8.87;65.14
75794;BME280;64418;47.536;19.074;2023-03-11T01:38:15;98145.03;;;8.69;66.23
75794;BME280;64418;47.536;19.074;2023-03-11T01:41:01;98148.81;;;8.68;66.00
75794;BME280;64418;47.536;19.074;2023-03-11T01:43:50;98144.09;;;8.58;66.03
75794;BME280;64418;47.536;19.074;2023-03-11T01:46:20;98132.63;;;8.68;65.38
75794;BME280;64418;47.536;19.074;2023-03-11T01:48:48;98115.00;;;8.82;64.60
75794;BME280;64418;47.536;19.074;2023-03-11T01:51:16;98117.00;;;8.92;63.35
75794;BME280;64418;47.536;19.074;2023-03-11T01:53:46;98117.78;;;8.87;63.45
75794;BME280;64418;47.536;19.074;2023-03-11T01:56:13;98111.75;;;9.02;62.52
75794;BME280;64418;47.536;19.074;2023-03-11T01:58:41;98121.03;;;8.89;62.75
75794;BME280;64418;47.536;19.074;2023-03-11T02:01:08;98136.53;;;8.99;62.11
75794;BME280;64418;47.536;19.074;2023-03-11T02:03:37;98150.09;;;8.82;62.32
75794;BME280;64418;47.536;19.074;2023-03-11T02:06:06;98140.22;;;8.71;63.21
75794;BME280;64418;47.536;19.074;2023-03-11T02:08:34;98135.78;;;8.82;62.40
75794;BME280;64418;47.536;19.074;2023-03-11T02:11:02;98154.63;;;8.98;61.74
75794;BME280;64418;47.536;19.074;2023-03-11T02:13:29;98145.75;;;9.03;61.19
75794;BME280;64418;47.536;19.074;2023-03-11T02:16:16;98144.16;;;9.02;60.87
75794;BME280;64418;47.536;19.074;2023-03-11T02:18:44;98146.66;;;9.08;59.59
75794;BME280;64418;47.536;19.074;2023-03-11T02:21:20;98142.94;;;9.14;59.08
75794;BME280;64418;47.536;19.074;2023-03-11T02:24:11;98142.44;;;9.17;58.38
75794;BME280;64418;47.536;19.074;2023-03-11T02:26:50;98145.62;;;9.14;58.88
75794;BME280;64418;47.536;19.074;2023-03-11T02:29:38;98145.41;;;9.16;58.72
75794;BME280;64418;47.536;19.074;2023-03-11T02:32:07;98146.25;;;9.00;59.30
75794;BME280;64418;47.536;19.074;2023-03-11T02:34:35;98140.13;;;9.04;59.29
75794;BME280;64418;47.536;19.074;2023-03-11T02:37:04;98149.78;;;9.00;59.41
75794;BME280;64418;47.536;19.074;2023-03-11T02:39:30;98147.84;;;8.96;59.25
75794;BME280;64418;47.536;19.074;2023-03-11T02:41:58;98128.28;;;9.10;58.05
75794;BME280;64418;47.536;19.074;2023-03-11T02:44:52;98137.22;;;9.11;58.12
75794;BME280;64418;47.536;19.074;2023-03-11T02:47:22;98140.75;;;9.11;58.00
75794;BME280;64418;47.536;19.074;2023-03-11T02:49:49;98153.53;;;8.99;58.98
75794;BME280;64418;47.536;19.074;2023-03-11T02:52:35;98144.69;;;9.04;58.49
75794;BME280;64418;47.536;19.074;2023-03-11T02:55:02;98145.72;;;8.98;58.46
75794;BME280;64418;47.536;19.074;2023-03-11T02:57:29;98148.84;;;8.90;59.05
75794;BME280;64418;47.536;19.074;2023-03-11T03:02:43;98154.25;;;8.90;58.86
75794;BME280;64418;47.536;19.074;2023-03-11T03:05:10;98158.09;;;8.94;58.08
75794;BME280;64418;47.536;19.074;2023-03-11T03:07:56;98174.59;;;8.97;57.50
75794;BME280;64418;47.536;19.074;2023-03-11T03:10:22;98174.91;;;9.01;57.05
75794;BME280;64418;47.536;19.074;2023-03-11T03:13:10;98181.88;;;8.97;57.45
75794;BME280;64418;47.536;19.074;2023-03-11T03:15:35;98183.44;;;8.93;57.69
75794;BME280;64418;47.536;19.074;2023-03-11T03:18:04;98187.78;;;8.94;57.71
75794;BME280;64418;47.536;19.074;2023-03-11T03:20:30;98185.13;;;8.99;57.44
75794;BME280;64418;47.536;19.074;2023-03-11T03:23:15;98171.72;;;9.04;56.93
75794;BME280;64418;47.536;19.074;2023-03-11T03:25:42;98191.19;;;9.06;56.81
75794;BME280;64418;47.536;19.074;2023-03-11T03:28:10;98163.38;;;9.05;56.47
75794;BME280;64418;47.536;19.074;2023-03-11T03:30:56;98196.41;;;9.12;55.84
75794;BME280;64418;47.536;19.074;2023-03-11T03:33:27;98187.41;;;9.07;56.12
75794;BME280;64418;47.536;19.074;2023-03-11T03:35:53;98189.25;;;9.01;56.10
75794;BME280;64418;47.536;19.074;2023-03-11T03:38:18;98191.06;;;9.17;53.20
75794;BME280;64418;47.536;19.074;2023-03-11T03:41:04;98190.81;;;9.19;52.87
75794;BME280;64418;47.536;19.074;2023-03-11T03:43:31;98204.91;;;9.21;52.43
75794;BME280;64418;47.536;19.074;2023-03-11T03:46:17;98184.06;;;9.22;51.25
75794;BME280;64418;47.536;19.074;2023-03-11T03:48:43;98206.62;;;9.10;51.47
75794;BME280;64418;47.536;19.074;2023-03-11T03:51:10;98125.87;;;9.09;49.90
75794;BME280;64418;47.536;19.074;2023-03-11T03:53:56;98185.72;;;9.01;49.59
75794;BME280;64418;47.536;19.074;2023-03-11T03:56:22;98196.94;;;8.93;49.46
75794;BME280;64418;47.536;19.074;2023-03-11T03:59:09;98196.31;;;8.86;49.36
75794;BME280;64418;47.536;19.074;2023-03-11T04:01:35;98177.31;;;8.81;48.11
75794;BME280;64418;47.536;19.074;2023-03-11T04:04:01;98181.97;;;8.63;49.40
75794;BME280;64418;47.536;19.074;2023-03-11T04:06:47;98198.66;;;8.60;50.15
75794;BME280;64418;47.536;19.074;2023-03-11T04:09:13;98203.88;;;8.50;51.18
75794;BME280;64418;47.536;19.074;2023-03-11T04:11:39;98230.47;;;8.42;51.81
75794;BME280;64418;47.536;19.074;2023-03-11T04:14:26;98234.94;;;8.36;52.25
75794;BME280;64418;47.536;19.074;2023-03-11T04:16:52;98207.78;;;8.26;52.31
75794;BME280;64418;47.536;19.074;2023-03-11T04:19:18;98230.41;;;8.25;52.46
75794;BME280;64418;47.536;19.074;2023-03-11T04:21:47;98254.38;;;8.21;52.67
75794;BME280;64418;47.536;19.074;2023-03-11T04:24:12;98254.03;;;8.18;52.67
75794;BME280;64418;47.536;19.074;2023-03-11T04:26:38;98250.69;;;8.11;52.64
75794;BME280;64418;47.536;19.074;2023-03-11T04:29:04;98266.19;;;8.04;53.43
75794;BME280;64418;47.536;19.074;2023-03-11T04:31:31;98279.69;;;8.04;53.06
75794;BME280;64418;47.536;19.074;2023-03-11T04:33:57;98276.88;;;7.99;52.78
75794;BME280;64418;47.536;19.074;2023-03-11T04:36:23;98284.84;;;7.94;53.36
75794;BME280;64418;47.536;19.074;2023-03-11T04:38:49;98268.69;;;7.94;52.05
75794;BME280;64418;47.536;19.074;2023-03-11T04:41:36;98284.13;;;7.98;50.04
75794;BME280;64418;47.536;19.074;2023-03-11T04:44:12;98242.81;;;7.93;45.38
75794;BME280;64418;47.536;19.074;2023-03-11T04:47:00;98262.06;;;8.01;40.80
75794;BME280;64418;47.536;19.074;2023-03-11T04:49:46;98265.31;;;7.58;41.13
75794;BME280;64418;47.536;19.074;2023-03-11T04:52:12;98278.47;;;7.43;40.22
75794;BME280;64418;47.536;19.074;2023-03-11T04:54:58;98230.00;;;7.32;40.29
75794;BME280;64418;47.536;19.074;2023-03-11T04:57:24;98259.09;;;6.95;41.31
75794;BME280;64418;47.536;19.074;2023-03-11T04:59:50;98286.72;;;7.02;42.00
75794;BME280;64418;47.536;19.074;2023-03-11T05:02:38;98257.59;;;6.87;43.07
75794;BME280;64418;47.536;19.074;2023-03-11T05:05:24;98293.72;;;6.91;43.25
75794;BME280;64418;47.536;19.074;2023-03-11T05:07:50;98305.31;;;6.80;44.00
75794;BME280;64418;47.536;19.074;2023-03-11T05:10:38;98317.22;;;6.72;44.49
75794;BME280;64418;47.536;19.074;2023-03-11T05:13:04;98325.06;;;6.62;45.17
75794;BME280;64418;47.536;19.074;2023-03-11T05:15:30;98316.16;;;6.50;46.02
75794;BME280;64418;47.536;19.074;2023-03-11T05:18:17;98333.09;;;6.51;46.12
75794;BME280;64418;47.536;19.074;2023-03-11T05:20:46;98327.47;;;6.41;46.50
75794;BME280;64418;47.536;19.074;2023-03-11T05:23:12;98297.53;;;6.37;46.59
75794;BME280;64418;47.536;19.074;2023-03-11T05:25:38;98305.59;;;6.37;46.49
75794;BME280;64418;47.536;19.074;2023-03-11T05:28:04;98317.63;;;6.35;46.72
75794;BME280;64418;47.536;19.074;2023-03-11T05:30:30;98308.63;;;6.29;47.27
75794;BME280;64418;47.536;19.074;2023-03-11T05:32:56;98320.31;;;6.23;47.63
75794;BME280;64418;47.536;19.074;2023-03-11T05:35:24;98340.16;;;6.22;46.92
75794;BME280;64418;47.536;19.074;2023-03-11T05:37:50;98320.00;;;6.13;46.34
75794;BME280;64418;47.536;19.074;2023-03-11T05:40:36;98321.66;;;6.14;45.63
75794;BME280;64418;47.536;19.074;2023-03-11T05:43:02;98354.09;;;6.01;46.17
75794;BME280;64418;47.536;19.074;2023-03-11T05:45:28;98355.47;;;5.92;46.32
75794;BME280;64418;47.536;19.074;2023-03-11T05:47:55;98360.53;;;5.81;46.74
75794;BME280;64418;47.536;19.074;2023-03-11T05:50:21;98376.66;;;5.81;46.77
75794;BME280;64418;47.536;19.074;2023-03-11T05:52:49;98373.81;;;5.76;46.80
75794;BME280;64418;47.536;19.074;2023-03-11T05:55:15;98382.44;;;5.60;47.45
75794;BME280;64418;47.536;19.074;2023-03-11T05:57:41;98378.72;;;5.79;46.64
75794;BME280;64418;47.536;19.074;2023-03-11T06:00:08;98400.66;;;5.76;47.13
75794;BME280;64418;47.536;19.074;2023-03-11T06:02:34;98399.09;;;5.69;47.51
75794;BME280;64418;47.536;19.074;2023-03-11T06:05:20;98386.63;;;5.74;46.86
75794;BME280;64418;47.536;19.074;2023-03-11T06:07:46;98366.88;;;5.69;46.29
75794;BME280;64418;47.536;19.074;2023-03-11T06:10:33;98385.31;;;5.47;46.17
75794;BME280;64418;47.536;19.074;2023-03-11T06:12:59;98399.47;;;5.54;46.40
75794;BME280;64418;47.536;19.074;2023-03-11T06:15:25;98379.78;;;5.60;46.12
75794;BME280;64418;47.536;19.074;2023-03-11T06:17:51;98372.91;;;5.64;45.80
75794;BME280;64418;47.536;19.074;2023-03-11T06:20:18;98395.88;;;5.60;45.95
75794;BME280;64418;47.536;19.074;2023-03-11T06:22:47;98381.34;;;5.68;45.69
75794;BME280;64418;47.536;19.074;2023-03-11T06:25:12;98401.34;;;5.72;45.49
75794;BME280;64418;47.536;19.074;2023-03-11T06:27:40;98404.84;;;5.72;45.47
75794;BME280;64418;47.536;19.074;2023-03-11T06:30:06;98418.44;;;5.77;44.80
75794;BME280;64418;47.536;19.074;2023-03-11T06:32:32;98438.59;;;5.87;44.73
75794;BME280;64418;47.536;19.074;2023-03-11T06:34:58;98446.50;;;5.81;44.25
75794;BME280;64418;47.536;19.074;2023-03-11T06:37:26;98452.19;;;5.92;44.65
75794;BME280;64418;47.536;19.074;2023-03-11T06:40:12;98435.34;;;5.78;44.88
75794;BME280;64418;47.536;19.074;2023-03-11T06:42:39;98446.19;;;5.71;45.14
75794;BME280;64418;47.536;19.074;2023-03-11T06:45:06;98448.28;;;5.69;45.65
75794;BME280;64418;47.536;19.074;2023-03-11T06:47:52;98426.03;;;5.62;45.14
75794;BME280;64418;47.536;19.074;2023-03-11T06:50:18;98452.91;;;5.62;45.45
75794;BME280;64418;47.536;19.074;2023-03-11T06:52:43;98461.53;;;5.64;45.13
75794;BME280;64418;47.536;19.074;2023-03-11T06:55:10;98485.06;;;5.69;45.19
75794;BME280;64418;47.536;19.074;2023-03-11T06:57:36;98462.75;;;5.68;45.06
75794;BME280;64418;47.536;19.074;2023-03-11T07:00:05;98467.28;;;5.68;44.55
75794;BME280;64418;47.536;19.074;2023-03-11T07:02:31;98467.53;;;5.66;45.02
75794;BME280;64418;47.536;19.074;2023-03-11T07:04:58;98475.53;;;5.48;44.80
75794;BME280;64418;47.536;19.074;2023-03-11T07:07:24;98489.41;;;5.45;45.37
75794;BME280;64418;47.536;19.074;2023-03-11T07:09:54;98472.84;;;5.48;45.29
75794;BME280;64418;47.536;19.074;2023-03-11T07:12:20;98448.91;;;5.47;45.31
75794;BME280;64418;47.536;19.074;2023-03-11T07:14:45;98473.59;;;5.55;45.44
75794;BME280;64418;47.536;19.074;2023-03-11T07:17:33;98451.50;;;5.35;44.88
75794;BME280;64418;47.536;19.074;2023-03-11T07:19:59;98469.28;;;5.29;45.61
75794;BME280;64418;47.536;19.074;2023-03-11T07:22:26;98475.81;;;5.40;45.32
75794;BME280;64418;47.536;19.074;2023-03-11T07:24:53;98455.13;;;5.47;45.36
75794;BME280;64418;47.536;19.074;2023-03-11T07:27:19;98474.94;;;5.46;45.72
75794;BME280;64418;47.536;19.074;2023-03-11T07:30:08;98452.03;;;5.19;45.46
75794;BME280;64418;47.536;19.074;2023-03-11T07:32:56;98502.09;;;5.07;45.51
75794;BME280;64418;47.536;19.074;2023-03-11T07:35:22;98449.97;;;5.21;44.88
75794;BME280;64418;47.536;19.074;2023-03-11T07:38:08;98497.72;;;5.37;45.07
75794;BME280;64418;47.536;19.074;2023-03-11T07:40:34;98510.50;;;5.42;44.99
75794;BME280;64418;47.536;19.074;2023-03-11T07:43:00;98499.97;;;5.90;43.97
75794;BME280;64418;47.536;19.074;2023-03-11T07:45:46;98508.34;;;6.00;43.64
75794;BME280;64418;47.536;19.074;2023-03-11T07:48:13;98492.50;;;6.76;41.36
75794;BME280;64418;47.536;19.074;2023-03-11T07:50:39;98495.50;;;6.38;42.52
75794;BME280;64418;47.536;19.074;2023-03-11T07:53:28;98465.47;;;6.05;42.83
75794;BME280;64418;47.536;19.074;2023-03-11T07:55:54;98462.19;;;6.03;41.74
75794;BME280;64418;47.536;19.074;2023-03-11T07:58:20;98490.81;;;6.15;42.14
75794;BME280;64418;47.536;19.074;2023-03-11T08:00:46;98443.06;;;6.29;41.37
75794;BME280;64418;47.536;19.074;2023-03-11T08:03:13;98494.00;;;6.24;41.47
75794;BME280;64418;47.536;19.074;2023-03-11T08:05:39;98547.47;;;6.50;41.68
75794;BME280;64418;47.536;19.074;2023-03-11T08:08:26;98542.66;;;7.30;40.47
75794;BME280;64418;47.536;19.074;2023-03-11T08:10:52;98571.91;;;6.49;41.54
75794;BME280;64418;47.536;19.074;2023-03-11T08:13:39;98539.88;;;6.11;41.82
75794;BME280;64418;47.536;19.074;2023-03-11T08:16:08;98555.53;;;6.32;41.28
75794;BME280;64418;47.536;19.074;2023-03-11T08:18:42;98533.19;;;6.68;40.87
75794;BME280;64418;47.536;19.074;2023-03-11T08:21:29;98568.63;;;7.13;40.46
75794;BME280;64418;47.536;19.074;2023-03-11T08:24:15;98592.94;;;7.36;40.45
75794;BME280;64418;47.536;19.074;2023-03-11T08:26:42;98607.25;;;9.39;36.65
75794;BME280;64418;47.536;19.074;2023-03-11T08:30:14;98616.47;;;9.72;34.36
75794;BME280;64418;47.536;19.074;2023-03-11T08:32:44;98619.78;;;7.13;39.66
75794;BME280;64418;47.536;19.074;2023-03-11T08:35:13;98649.09;;;6.85;40.77
75794;BME280;64418;47.536;19.074;2023-03-11T08:37:59;98643.59;;;6.80;41.08
75794;BME280;64418;47.536;19.074;2023-03-11T08:40:29;98636.72;;;7.32;39.60
75794;BME280;64418;47.536;19.074;2023-03-11T08:43:17;98616.97;;;7.19;39.96
75794;BME280;64418;47.536;19.074;2023-03-11T08:45:46;98627.22;;;7.82;38.97
75794;BME280;64418;47.536;19.074;2023-03-11T08:48:12;98637.28;;;7.34;40.05
75794;BME280;64418;47.536;19.074;2023-03-11T08:53:35;98605.44;;;10.61;33.99
75794;BME280;64418;47.536;19.074;2023-03-11T08:56:02;98614.75;;;10.49;33.43
75794;BME280;64418;47.536;19.074;2023-03-11T08:58:57;98624.91;;;10.58;33.60
75794;BME280;64418;47.536;19.074;2023-03-11T09:01:46;98602.16;;;9.43;35.05
75794;BME280;64418;47.536;19.074;2023-03-11T09:04:12;98549.22;;;9.30;35.00
75794;BME280;64418;47.536;19.074;2023-03-11T09:06:41;98605.97;;;9.30;35.54
75794;BME280;64418;47.536;19.074;2023-03-11T09:09:16;98600.56;;;8.50;36.29
75794;BME280;64418;47.536;19.074;2023-03-11T09:11:43;98584.84;;;7.06;39.01
75794;BME280;64418;47.536;19.074;2023-03-11T09:14:10;98612.91;;;7.58;39.08
75794;BME280;64418;47.536;19.074;2023-03-11T09:17:00;98623.47;;;7.30;39.80
75794;BME280;64418;47.536;19.074;2023-03-11T09:19:47;98592.69;;;7.08;40.21
75794;BME280;64418;47.536;19.074;2023-03-11T09:22:13;98595.62;;;6.88;40.33
75794;BME280;64418;47.536;19.074;2023-03-11T09:24:41;98619.50;;;6.48;41.74
75794;BME280;64418;47.536;19.074;2023-03-11T09:27:27;98621.66;;;6.40;41.84
75794;BME280;64418;47.536;19.074;2023-03-11T09:29:54;98654.19;;;6.56;42.37
75794;BME280;64418;47.536;19.074;2023-03-11T09:32:21;98652.78;;;6.90;41.86
75794;BME280;64418;47.536;19.074;2023-03-11T09:34:48;98646.19;;;6.86;42.25
75794;BME280;64418;47.536;19.074;2023-03-11T09:37:14;98639.75;;;7.05;42.07
75794;BME280;64418;47.536;19.074;2023-03-11T09:39:45;98599.41;;;6.87;42.08
75794;BME280;64418;47.536;19.074;2023-03-11T09:42:17;98640.00;;;6.49;43.34
75794;BME280;64418;47.536;19.074;2023-03-11T09:44:50;98626.38;;;6.44;43.65
75794;BME280;64418;47.536;19.074;2023-03-11T09:47:42;98629.75;;;6.94;43.02
75794;BME280;64418;47.536;19.074;2023-03-11T09:50:28;98615.91;;;6.72;42.97
75794;BME280;64418;47.536;19.074;2023-03-11T09:53:03;98601.88;;;6.70;43.13
75794;BME280;64418;47.536;19.074;2023-03-11T09:55:38;98582.44;;;6.68;42.98
75794;BME280;64418;47.536;19.074;2023-03-11T09:58:16;98594.91;;;6.81;42.61
75794;BME280;64418;47.536;19.074;2023-03-11T10:00:58;98600.00;;;6.89;42.53
75794;BME280;64418;47.536;19.074;2023-03-11T10:03:29;98578.88;;;6.56;43.44
75794;BME280;64418;47.536;19.074;2023-03-11T10:06:02;98596.19;;;6.78;43.79
75794;BME280;64418;47.536;19.074;2023-03-11T10:08:59;98589.63;;;6.56;43.56
75794;BME280;64418;47.536;19.074;2023-03-11T10:14:46;98611.38;;;6.12;43.76
75794;BME280;64418;47.536;19.074;2023-03-11T10:17:43;98606.97;;;5.99;44.17
75794;BME280;64418;47.536;19.074;2023-03-11T10:20:17;98629.56;;;5.92;44.60
75794;BME280;64418;47.536;19.074;2023-03-11T10:22:48;98622.63;;;5.77;45.12
75794;BME280;64418;47.536;19.074;2023-03-11T10:25:24;98619.75;;;5.72;46.16
75794;BME280;64418;47.536;19.074;2023-03-11T10:28:15;98619.31;;;5.75;46.65
75794;BME280;64418;47.536;19.074;2023-03-11T10:31:11;98650.34;;;5.71;46.85
75794;BME280;64418;47.536;19.074;2023-03-11T10:33:44;98646.97;;;5.82;47.79
75794;BME280;64418;47.536;19.074;2023-03-11T10:36:37;98667.63;;;5.89;47.07
75794;BME280;64418;47.536;19.074;2023-03-11T10:39:24;98678.38;;;6.13;46.82
75794;BME280;64418;47.536;19.074;2023-03-11T10:41:53;98680.34;;;7.04;44.18
75794;BME280;64418;47.536;19.074;2023-03-11T10:44:41;98662.19;;;10.18;36.41
75794;BME280;64418;47.536;19.074;2023-03-11T10:47:14;98721.03;;;13.50;30.87
75794;BME280;64418;47.536;19.074;2023-03-11T10:50:01;98694.97;;;9.77;36.51
75794;BME280;64418;47.536;19.074;2023-03-11T10:52:28;98699.44;;;10.44;35.95
75794;BME280;64418;47.536;19.074;2023-03-11T10:54:59;98693.38;;;10.37;36.83
75794;BME280;64418;47.536;19.074;2023-03-11T10:57:27;98692.69;;;11.45;33.28
75794;BME280;64418;47.536;19.074;2023-03-11T11:00:27;98705.41;;;10.46;37.13
75794;BME280;64418;47.536;19.074;2023-03-11T11:03:22;98695.81;;;9.37;38.17
75794;BME280;64418;47.536;19.074;2023-03-11T11:05:57;98691.94;;;7.82;41.66
75794;BME280;64418;47.536;19.074;2023-03-11T11:08:44;98707.13;;;7.35;42.67
75794;BME280;64418;47.536;19.074;2023-03-11T11:11:30;98726.09;;;7.58;42.66
75794;BME280;64418;47.536;19.074;2023-03-11T11:13:57;98713.37;;;8.18;40.12
75794;BME280;64418;47.536;19.074;2023-03-11T11:16:50;98709.44;;;8.33;40.14
75794;BME280;64418;47.536;19.074;2023-03-11T11:19:18;98682.44;;;9.42;38.17
75794;BME280;64418;47.536;19.074;2023-03-11T11:21:48;98724.44;;;7.57;41.27
75794;BME280;64418;47.536;19.074;2023-03-11T11:24:34;98720.78;;;8.23;40.53
75794;BME280;64418;47.536;19.074;2023-03-11T11:27:04;98702.94;;;7.03;42.49
75794;BME280;64418;47.536;19.074;2023-03-11T11:29:30;98705.06;;;6.58;43.61
75794;BME280;64418;47.536;19.074;2023-03-11T11:32:18;98734.69;;;6.76;43.72
75794;BME280;64418;47.536;19.074;2023-03-11T11:34:56;98720.44;;;6.94;43.12
75794;BME280;64418;47.536;19.074;2023-03-11T11:37:23;98725.16;;;7.16;43.30
75794;BME280;64418;47.536;19.074;2023-03-11T11:39:52;98726.41;;;6.96;43.95
75794;BME280;64418;47.536;19.074;2023-03-11T11:42:20;98730.22;;;7.06;43.65
75794;BME280;64418;47.536;19.074;2023-03-11T11:44:51;98712.81;;;6.91;43.70
75794;BME280;64418;47.536;19.074;2023-03-11T11:47:21;98728.97;;;7.09;43.72
75794;BME280;64418;47.536;19.074;2023-03-11T11:49:53;98725.00;;;7.59;42.30
75794;BME280;64418;47.536;19.074;2023-03-11T11:52:23;98729.16;;;7.62;42.16
75794;BME280;64418;47.536;19.074;2023-03-11T11:54:52;98723.75;;;7.92;40.88
75794;BME280;64418;47.536;19.074;2023-03-11T11:57:38;98719.72;;;7.83;41.20
75794;BME280;64418;47.536;19.074;2023-03-11T12:00:15;98723.19;;;8.54;39.83
75794;BME280;64418;47.536;19.074;2023-03-11T12:02:51;98744.88;;;8.48;39.61
75794;BME280;64418;47.536;19.074;2023-03-11T12:05:28;98733.50;;;8.69;39.18
75794;BME280;64418;47.536;19.074;2023-03-11T12:08:17;98719.44;;;8.02;40.04
75794;BME280;64418;47.536;19.074;2023-03-11T12:11:06;98737.28;;;7.73;40.71
75794;BME280;64418;47.536;19.074;2023-03-11T12:13:52;98726.84;;;8.07;39.95
75794;BME280;64418;47.536;19.074;2023-03-11T12:16:28;98759.59;;;8.22;39.31
75794;BME280;64418;47.536;19.074;2023-03-11T12:18:58;98721.25;;;7.90;40.00
75794;BME280;64418;47.536;19.074;2023-03-11T12:21:38;98728.69;;;9.06;37.13
75794;BME280;64418;47.536;19.074;2023-03-11T12:24:46;98681.97;;;7.83;39.88
75794;BME280;64418;47.536;19.074;2023-03-11T12:27:41;98699.16;;;8.00;39.23
75794;BME280;64418;47.536;19.074;2023-03-11T12:30:13;98726.91;;;9.00;37.51
75794;BME280;64418;47.536;19.074;2023-03-11T12:32:44;98736.37;;;9.37;36.27
75794;BME280;64418;47.536;19.074;2023-03-11T12:35:19;98700.66;;;9.63;36.04
75794;BME280;64418;47.536;19.074;2023-03-11T12:38:01;98735.59;;;9.25;36.40
75794;BME280;64418;47.536;19.074;2023-03-11T12:40:48;98707.06;;;9.17;36.33
75794;BME280;64418;47.536;19.074;2023-03-11T12:43:27;98718.25;;;10.73;33.77
75794;BME280;64418;47.536;19.074;2023-03-11T12:47:01;98737.47;;;11.70;32.25
75794;BME280;64418;47.536;19.074;2023-03-11T12:49:28;98777.38;;;12.44;30.22
75794;BME280;64418;47.536;19.074;2023-03-11T12:52:02;98771.06;;;13.08;29.44
75794;BME280;64418;47.536;19.074;2023-03-11T12:54:31;98801.66;;;14.54;27.27
75794;BME280;64418;47.536;19.074;2023-03-11T12:56:58;98769.34;;;16.70;24.94
75794;BME280;64418;47.536;19.074;2023-03-11T12:59:45;98778.69;;;13.06;28.85
75794;BME280;64418;47.536;19.074;2023-03-11T13:02:55;98781.87;;;10.37;33.16
75794;BME280;64418;47.536;19.074;2023-03-11T13:05:29;98761.91;;;9.18;35.79
75794;BME280;64418;47.536;19.074;2023-03-11T13:07:59;98793.50;;;8.59;36.53
75794;BME280;64418;47.536;19.074;2023-03-11T13:10:42;98788.41;;;8.10;37.79
75794;BME280;64418;47.536;19.074;2023-03-11T13:13:37;98805.22;;;7.94;38.44
75794;BME280;64418;47.536;19.074;2023-03-11T13:16:35;98800.41;;;8.26;37.87
75794;BME280;64418;47.536;19.074;2023-03-11T13:19:35;98802.81;;;9.10;36.12
75794;BME280;64418;47.536;19.074;2023-03-11T13:29:28;98807.06;;;7.45;38.97
75794;BME280;64418;47.536;19.074;2023-03-11T13:32:57;98814.88;;;7.35;39.60
75794;BME280;64418;47.536;19.074;2023-03-11T13:35:39;98829.16;;;6.93;40.53
75794;BME280;64418;47.536;19.074;2023-03-11T13:38:28;98811.31;;;6.73;40.94
75794;BME280;64418;47.536;19.074;2023-03-11T13:40:59;98839.72;;;6.69;41.38
75794;BME280;64418;47.536;19.074;2023-03-11T13:43:27;98843.09;;;6.58;42.04
75794;BME280;64418;47.536;19.074;2023-03-11T13:46:19;98827.91;;;6.70;42.38
75794;BME280;64418;47.536;19.074;2023-03-11T13:48:49;98826.97;;;7.44;41.24
75794;BME280;64418;47.536;19.074;2023-03-11T13:51:23;98866.59;;;11.16;34.20
75794;BME280;64418;47.536;19.074;2023-03-11T13:53:54;98841.31;;;12.30;30.13